Time;durP1;ratioP1;P1;durP2;ratioP2;P2;SDS_P1;SDS_P2;PMS_P1;PMS_P2;Temp;Humidity;BMP_temperature;BMP_pressure;BME280_temperature;BME280_humidity;BME280_pressure;Samples;Min_cycle;Max_cycle;Signal;HPM_P1;HPM_P2
2022/03/03 00:01:20;;;;;;;19.52;14.35;;;0.90;99.90;;;;;;5103079;28;20221;-80
2022/03/03 00:03:46;;;;;;;21.52;15.10;;;0.90;99.90;;;;;;5116573;28;20198;-80
2022/03/03 00:06:13;;;;;;;12.50;11.30;;;0.80;99.90;;;;;;5116040;28;20217;-80
2022/03/03 00:08:40;;;;;;;16.17;13.10;;;0.80;99.90;;;;;;5102923;28;20692;-80
2022/03/03 00:11:07;;;;;;;18.33;12.15;;;0.80;99.90;;;;;;5100192;28;20673;-81
2022/03/03 00:13:33;;;;;;;16.20;12.85;;;0.70;99.90;;;;;;5104749;28;20235;-80
2022/03/03 00:16:02;;;;;;;15.75;13.15;;;0.60;99.90;;;;;;5117191;28;20207;-80
2022/03/03 00:18:31;;;;;;;20.23;13.75;;;0.50;99.90;;;;;;5114836;28;20204;-80
2022/03/03 00:20:57;;;;;;;15.57;13.70;;;0.60;99.90;;;;;;5114762;28;20269;-80
2022/03/03 00:23:24;;;;;;;14.48;12.95;;;0.60;99.90;;;;;;5108236;28;20204;-81
2022/03/03 00:25:51;;;;;;;14.90;11.43;;;0.70;99.90;;;;;;5105486;28;20188;-80
2022/03/03 00:28:17;;;;;;;16.73;11.88;;;0.70;99.90;;;;;;5115518;28;20205;-80
2022/03/03 00:30:44;;;;;;;16.83;12.98;;;0.70;99.90;;;;;;5114525;28;20204;-80
2022/03/03 00:33:11;;;;;;;19.95;15.40;;;0.70;99.90;;;;;;5101735;28;20227;-81
2022/03/03 00:35:39;;;;;;;19.05;14.27;;;0.70;99.90;;;;;;5101204;28;20204;-80
2022/03/03 00:38:06;;;;;;;16.00;13.13;;;0.70;99.90;;;;;;5100395;28;20197;-81
2022/03/03 00:40:33;;;;;;;17.95;13.02;;;0.70;99.90;;;;;;5105245;28;20208;-80
2022/03/03 00:42:59;;;;;;;16.48;14.52;;;0.70;99.90;;;;;;5111204;28;20217;-80
2022/03/03 00:45:26;;;;;;;17.92;13.65;;;0.70;99.90;;;;;;5104946;28;20674;-81
2022/03/03 00:47:53;;;;;;;20.42;12.60;;;0.70;99.90;;;;;;5099482;28;20213;-81
2022/03/03 00:50:20;;;;;;;18.92;14.85;;;0.70;99.90;;;;;;5099244;28;20209;-81
2022/03/03 00:52:48;;;;;;;19.70;13.00;;;0.70;99.90;;;;;;5099178;28;20701;-81
2022/03/03 00:55:15;;;;;;;22.30;14.70;;;0.70;99.90;;;;;;5099188;28;20213;-80
2022/03/03 00:57:41;;;;;;;16.30;14.27;;;0.70;99.90;;;;;;5099682;28;20200;-80
2022/03/03 01:00:09;;;;;;;19.55;14.18;;;0.50;99.90;;;;;;5099041;28;20211;-81
2022/03/03 01:02:36;;;;;;;17.42;14.48;;;0.60;99.90;;;;;;5098475;28;20219;-81
2022/03/03 01:05:04;;;;;;;16.50;13.35;;;0.60;99.90;;;;;;5100050;28;20219;-81
2022/03/03 01:07:31;;;;;;;16.60;13.60;;;0.60;99.90;;;;;;5099176;28;20201;-80
2022/03/03 01:09:59;;;;;;;16.67;12.60;;;0.60;99.90;;;;;;5099490;28;20201;-81
2022/03/03 01:12:26;;;;;;;16.80;13.45;;;0.60;99.90;;;;;;5098040;28;20717;-81
2022/03/03 01:14:52;;;;;;;13.57;12.18;;;0.60;99.90;;;;;;5099087;28;20208;-80
2022/03/03 01:17:19;;;;;;;17.77;13.27;;;0.60;99.90;;;;;;5098744;28;20208;-80
2022/03/03 01:19:46;;;;;;;21.45;14.32;;;0.60;99.90;;;;;;5099517;28;20211;-80
2022/03/03 01:22:14;;;;;;;16.80;14.35;;;0.50;99.90;;;;;;5098469;28;20224;-81
2022/03/03 01:24:41;;;;;;;17.25;15.27;;;0.50;99.90;;;;;;5098735;28;20617;-80
2022/03/03 01:27:09;;;;;;;20.20;14.55;;;0.50;99.90;;;;;;5099281;28;20197;-81
2022/03/03 01:29:36;;;;;;;19.58;14.00;;;0.50;99.90;;;;;;5098961;28;20218;-81
2022/03/03 01:32:03;;;;;;;17.35;14.90;;;0.40;99.90;;;;;;5078904;28;20281;-80
2022/03/03 01:34:30;;;;;;;22.60;17.33;;;0.40;99.90;;;;;;5078852;28;20205;-81
2022/03/03 01:36:56;;;;;;;19.50;13.25;;;0.20;99.90;;;;;;5097968;28;20198;-80
2022/03/03 01:39:23;;;;;;;23.35;13.18;;;0.30;99.90;;;;;;5098932;28;20210;-81
2022/03/03 01:41:50;;;;;;;15.77;13.30;;;0.40;99.90;;;;;;5099347;28;20221;-80
2022/03/03 01:44:18;;;;;;;17.55;13.93;;;0.40;99.90;;;;;;5099270;28;20199;-81
2022/03/03 01:46:49;;;;;;;20.70;15.38;;;0.40;99.90;;;;;;5098672;28;20209;-81
2022/03/03 01:49:16;;;;;;;20.55;14.30;;;0.50;99.90;;;;;;5098698;28;20212;-80
2022/03/03 01:51:43;;;;;;;22.60;14.68;;;0.50;99.90;;;;;;5078654;28;20236;-81
2022/03/03 01:54:10;;;;;;;17.00;14.07;;;0.40;99.90;;;;;;5095026;28;20232;-81
2022/03/03 01:56:36;;;;;;;17.02;13.00;;;0.40;99.90;;;;;;5099386;28;20201;-80
2022/03/03 01:59:04;;;;;;;16.25;12.32;;;0.40;99.90;;;;;;5099264;28;20628;-80
2022/03/03 02:01:33;;;;;;;22.30;13.93;;;0.40;99.90;;;;;;5099175;28;20224;-81
2022/03/03 02:03:59;;;;;;;15.10;11.85;;;0.40;99.90;;;;;;5099088;28;20254;-81
2022/03/03 02:06:26;;;;;;;20.02;16.05;;;0.40;99.90;;;;;;5099395;28;20211;-80
2022/03/03 02:08:53;;;;;;;16.10;14.13;;;0.40;99.90;;;;;;5099619;28;20235;-80
2022/03/03 02:11:21;;;;;;;20.15;14.43;;;0.40;99.90;;;;;;5098988;28;20235;-81
2022/03/03 02:13:48;;;;;;;17.67;15.45;;;0.40;99.90;;;;;;5101394;28;20263;-80
2022/03/03 02:16:14;;;;;;;17.73;13.70;;;0.40;99.90;;;;;;5102764;28;20205;-80
2022/03/03 02:18:43;;;;;;;17.55;13.95;;;0.40;99.90;;;;;;5082434;28;20205;-80
2022/03/03 02:21:13;;;;;;;17.15;13.57;;;0.30;99.90;;;;;;5091602;28;20219;-81
2022/03/03 02:23:40;;;;;;;17.60;14.00;;;0.30;99.90;;;;;;5103012;28;20197;-81
2022/03/03 02:26:08;;;;;;;25.10;15.88;;;0.20;99.90;;;;;;5103225;28;20271;-81
2022/03/03 02:28:35;;;;;;;17.10;12.95;;;-0.10;99.90;;;;;;5103475;28;20204;-80
2022/03/03 02:31:02;;;;;;;17.35;13.70;;;0.00;99.90;;;;;;5102412;28;20283;-80
2022/03/03 02:33:28;;;;;;;16.95;13.88;;;0.10;99.90;;;;;;5102987;28;20227;-80
2022/03/03 02:35:55;;;;;;;17.88;15.68;;;0.20;99.90;;;;;;5102689;28;20653;-80
2022/03/03 02:38:23;;;;;;;17.50;13.93;;;0.20;99.90;;;;;;5103000;28;20201;-80
2022/03/03 02:40:50;;;;;;;20.98;14.88;;;0.20;99.90;;;;;;5102425;28;20676;-81
2022/03/03 02:43:17;;;;;;;20.17;14.30;;;0.20;99.90;;;;;;5103472;28;20228;-81
2022/03/03 02:45:43;;;;;;;20.40;15.52;;;0.20;99.90;;;;;;5102241;28;20708;-81
2022/03/03 02:48:10;;;;;;;16.98;12.55;;;0.20;99.90;;;;;;5103105;28;20208;-81
2022/03/03 02:50:37;;;;;;;16.60;13.70;;;0.20;99.90;;;;;;5101598;28;20211;-81
2022/03/03 02:53:04;;;;;;;22.50;16.20;;;0.30;99.90;;;;;;5102865;28;20236;-80
2022/03/03 02:55:32;;;;;;;19.95;14.27;;;0.20;99.90;;;;;;5102556;28;20200;-80
2022/03/03 02:57:59;;;;;;;24.10;16.33;;;0.00;99.90;;;;;;5082223;28;20210;-80
2022/03/03 03:00:28;;;;;;;23.65;16.00;;;0.00;99.90;;;;;;5082267;28;20620;-80
2022/03/03 03:02:55;;;;;;;19.95;14.45;;;0.10;99.90;;;;;;5112686;28;20231;-80
2022/03/03 03:05:22;;;;;;;22.45;13.98;;;0.10;99.90;;;;;;5117778;28;20272;-80
2022/03/03 03:07:49;;;;;;;19.63;14.23;;;0.10;99.90;;;;;;5110682;28;20204;-80
2022/03/03 03:10:16;;;;;;;18.77;13.45;;;0.10;99.90;;;;;;5103154;28;20236;-81
2022/03/03 03:12:44;;;;;;;16.88;14.07;;;0.10;99.90;;;;;;5102203;28;20235;-81
2022/03/03 03:15:11;;;;;;;18.02;13.80;;;0.10;99.90;;;;;;5103231;28;20216;-80
2022/03/03 03:17:39;;;;;;;17.08;14.70;;;0.10;99.90;;;;;;5102426;28;20208;-80
2022/03/03 03:20:07;;;;;;;16.13;13.63;;;0.10;99.90;;;;;;5101931;28;20211;-80
2022/03/03 03:22:34;;;;;;;16.42;14.20;;;0.10;99.90;;;;;;5102561;28;20228;-80
2022/03/03 03:25:01;;;;;;;16.88;12.90;;;0.10;99.90;;;;;;5101195;28;20208;-80
2022/03/03 03:27:28;;;;;;;19.50;14.80;;;0.00;99.90;;;;;;5102273;28;20566;-80
2022/03/03 03:29:56;;;;;;;16.60;14.00;;;0.00;99.90;;;;;;5102859;28;20208;-81
2022/03/03 03:32:23;;;;;;;22.83;14.48;;;0.00;99.90;;;;;;5101868;28;20233;-81
2022/03/03 03:34:49;;;;;;;17.00;14.43;;;0.00;99.90;;;;;;5102408;28;20216;-81
2022/03/03 03:37:17;;;;;;;16.48;13.63;;;0.00;99.90;;;;;;5102606;28;20215;-80
2022/03/03 03:39:44;;;;;;;20.67;15.43;;;0.00;99.90;;;;;;5102062;28;20476;-81
2022/03/03 03:42:11;;;;;;;19.17;15.48;;;0.00;99.90;;;;;;5102376;28;20228;-80
2022/03/03 03:44:38;;;;;;;22.55;14.55;;;0.00;99.90;;;;;;5102969;28;20192;-80
2022/03/03 03:47:06;;;;;;;17.15;14.68;;;-0.20;99.90;;;;;;5102598;28;20212;-80
2022/03/03 03:49:34;;;;;;;17.65;13.75;;;-0.10;99.90;;;;;;5101911;28;20207;-80
2022/03/03 03:52:01;;;;;;;17.63;12.40;;;-0.10;99.90;;;;;;5102188;28;20285;-80
2022/03/03 03:54:28;;;;;;;16.88;15.18;;;-0.10;99.90;;;;;;5102497;28;20216;-81
2022/03/03 03:56:55;;;;;;;16.00;14.23;;;-0.10;99.90;;;;;;5102219;28;20212;-81
2022/03/03 03:59:22;;;;;;;20.77;14.52;;;-0.10;99.90;;;;;;5101783;28;20223;-80
2022/03/03 04:01:49;;;;;;;17.15;14.55;;;-0.10;99.90;;;;;;5102795;28;20228;-81
2022/03/03 04:04:17;;;;;;;23.35;15.02;;;-0.20;99.90;;;;;;5101841;28;20204;-80
2022/03/03 04:06:44;;;;;;;20.65;14.77;;;-0.20;99.90;;;;;;5102046;28;20678;-81
2022/03/03 04:09:11;;;;;;;24.55;14.43;;;-0.20;99.90;;;;;;5102396;28;20205;-81
2022/03/03 04:11:37;;;;;;;17.48;14.63;;;-0.30;99.90;;;;;;5100986;28;20232;-80
2022/03/03 04:14:04;;;;;;;20.67;16.02;;;-0.20;99.90;;;;;;5101809;28;20228;-80
2022/03/03 04:16:31;;;;;;;23.27;16.35;;;-0.30;99.90;;;;;;5101676;28;20201;-81
2022/03/03 04:18:58;;;;;;;16.95;14.93;;;-0.30;99.90;;;;;;5101392;28;20208;-80
2022/03/03 04:21:26;;;;;;;16.20;14.50;;;-0.30;99.90;;;;;;5101493;28;20709;-80
2022/03/03 04:23:53;;;;;;;21.08;15.73;;;-0.30;99.90;;;;;;5102999;28;20212;-80
2022/03/03 04:26:20;;;;;;;19.95;15.57;;;-0.40;99.90;;;;;;5110560;28;20210;-80
2022/03/03 04:28:47;;;;;;;18.02;15.93;;;-0.40;99.90;;;;;;5107784;28;20215;-80
2022/03/03 04:31:13;;;;;;;18.25;14.65;;;-0.40;99.90;;;;;;5101725;28;20223;-80
2022/03/03 04:33:41;;;;;;;18.73;15.48;;;-0.40;99.90;;;;;;5101268;28;20235;-81
2022/03/03 04:36:07;;;;;;;24.60;16.48;;;-0.40;99.90;;;;;;5100624;28;20200;-80
2022/03/03 04:38:36;;;;;;;18.05;14.77;;;-0.50;99.90;;;;;;5101931;28;20263;-80
2022/03/03 04:41:02;;;;;;;20.85;14.90;;;-0.50;99.90;;;;;;5101084;28;20211;-81
2022/03/03 04:43:29;;;;;;;23.00;14.18;;;-0.50;99.90;;;;;;5101161;28;20678;-81
2022/03/03 04:45:56;;;;;;;18.45;16.50;;;-0.50;99.90;;;;;;5101178;28;20211;-80
2022/03/03 04:48:29;;;;;;;19.13;16.20;;;-0.50;99.90;;;;;;5101403;28;20700;-80
2022/03/03 04:50:56;;;;;;;23.27;16.88;;;-0.50;99.90;;;;;;5100773;28;20207;-81
2022/03/03 04:53:23;;;;;;;24.30;15.68;;;-0.50;99.90;;;;;;5101119;28;20223;-80
2022/03/03 04:55:51;;;;;;;20.17;18.00;;;-0.50;99.90;;;;;;5101318;28;20200;-80
2022/03/03 04:58:18;;;;;;;22.52;17.92;;;-0.60;99.90;;;;;;5101393;28;20201;-80
2022/03/03 05:00:46;;;;;;;22.05;17.23;;;-0.60;99.90;;;;;;5101399;28;20201;-81
2022/03/03 05:03:12;;;;;;;18.25;14.77;;;-0.60;99.90;;;;;;5100904;28;20231;-81
2022/03/03 05:05:39;;;;;;;18.58;15.98;;;-0.60;99.90;;;;;;5109804;28;20219;-80
2022/03/03 05:08:06;;;;;;;23.30;16.23;;;-0.70;99.90;;;;;;5114837;28;20215;-80
2022/03/03 05:10:33;;;;;;;19.75;15.75;;;-0.70;99.90;;;;;;5112103;28;20568;-80
2022/03/03 05:13:01;;;;;;;20.30;15.80;;;-0.70;99.90;;;;;;5102578;28;20232;-81
2022/03/03 05:15:28;;;;;;;20.15;15.80;;;-0.60;99.90;;;;;;5102294;28;20211;-81
2022/03/03 05:17:55;;;;;;;18.98;15.63;;;-0.70;99.90;;;;;;5107687;28;20230;-80
2022/03/03 05:20:22;;;;;;;22.23;16.88;;;-0.70;99.90;;;;;;5107882;28;20215;-80
2022/03/03 05:22:49;;;;;;;22.10;15.48;;;-0.70;99.90;;;;;;5105388;28;20224;-81
2022/03/03 05:25:16;;;;;;;21.52;16.92;;;-0.70;99.90;;;;;;5103082;28;20263;-80
2022/03/03 05:27:43;;;;;;;18.08;15.57;;;-0.70;99.90;;;;;;5109318;28;20208;-80
2022/03/03 05:30:11;;;;;;;18.00;16.02;;;-0.80;99.90;;;;;;5110798;28;20208;-80
2022/03/03 05:32:38;;;;;;;21.13;15.23;;;-0.70;99.90;;;;;;5110942;28;20224;-80
2022/03/03 05:35:06;;;;;;;26.38;16.73;;;-0.80;99.90;;;;;;5106430;28;20704;-81
2022/03/03 05:37:33;;;;;;;22.60;16.27;;;-0.70;99.90;;;;;;5100837;28;20208;-81
2022/03/03 05:40:00;;;;;;;24.73;17.17;;;-0.70;99.90;;;;;;5100636;28;20265;-81
2022/03/03 05:42:27;;;;;;;22.80;17.42;;;-0.70;99.90;;;;;;5100193;28;20231;-81
2022/03/03 05:44:53;;;;;;;20.58;15.23;;;-0.80;99.90;;;;;;5100769;28;20196;-81
2022/03/03 05:47:22;;;;;;;20.85;14.55;;;-0.70;99.90;;;;;;5102064;28;20204;-81
2022/03/03 05:49:50;;;;;;;17.90;15.27;;;-0.70;99.90;;;;;;5104700;28;20196;-81
2022/03/03 05:52:17;;;;;;;23.38;17.17;;;-0.70;99.90;;;;;;5105002;28;20227;-81
2022/03/03 05:54:44;;;;;;;22.35;17.60;;;-0.70;99.90;;;;;;5104686;28;20292;-81
2022/03/03 05:57:17;;;;;;;22.63;17.48;;;-0.70;99.90;;;;;;5105694;28;20215;-81
2022/03/03 05:59:44;;;;;;;26.05;16.25;;;-0.70;99.90;;;;;;5105058;28;20200;-81
2022/03/03 06:02:11;;;;;;;23.48;16.10;;;-0.70;99.90;;;;;;5103774;28;20229;-81
2022/03/03 06:04:39;;;;;;;21.77;15.70;;;-0.70;99.90;;;;;;5104368;28;20218;-81
2022/03/03 06:07:08;;;;;;;19.23;15.43;;;-0.70;99.90;;;;;;5104942;28;20208;-81
2022/03/03 06:09:35;;;;;;;22.60;16.65;;;-0.60;99.90;;;;;;5104932;28;20215;-81
2022/03/03 06:12:06;;;;;;;24.98;16.80;;;-0.70;99.90;;;;;;5103115;28;20616;-81
2022/03/03 06:14:39;;;;;;;23.20;15.80;;;-0.60;99.90;;;;;;5104027;28;20224;-81
2022/03/03 06:17:07;;;;;;;22.58;16.58;;;-0.60;99.90;;;;;;5104159;28;20211;-81
2022/03/03 06:19:39;;;;;;;24.92;16.45;;;-0.50;99.90;;;;;;5103798;28;20204;-80
2022/03/03 06:22:08;;;;;;;19.02;15.57;;;-0.50;99.90;;;;;;5104579;28;20259;-80
2022/03/03 06:24:35;;;;;;;21.30;16.67;;;-0.50;99.90;;;;;;5105409;28;20678;-80
2022/03/03 06:27:02;;;;;;;26.10;18.70;;;-0.40;99.90;;;;;;5103893;28;20226;-80
2022/03/03 06:29:29;;;;;;;25.75;18.00;;;-0.40;99.90;;;;;;5103544;28;20207;-81
2022/03/03 06:31:56;;;;;;;18.55;16.63;;;-0.40;99.90;;;;;;5103362;28;20221;-81
2022/03/03 06:34:23;;;;;;;24.60;18.48;;;-0.30;99.90;;;;;;5103516;28;20588;-80
2022/03/03 06:36:50;;;;;;;21.48;16.17;;;-0.30;99.90;;;;;;5103778;28;20217;-81
2022/03/03 06:39:18;;;;;;;22.55;16.15;;;-0.30;99.90;;;;;;5103617;28;20211;-81
2022/03/03 06:41:45;;;;;;;18.83;15.95;;;-0.30;99.90;;;;;;5103061;28;20232;-81
2022/03/03 06:44:12;;;;;;;21.17;16.75;;;-0.20;99.90;;;;;;5103288;28;20287;-81
2022/03/03 06:46:39;;;;;;;21.65;17.50;;;-0.20;99.90;;;;;;5103027;28;20200;-80
2022/03/03 06:49:06;;;;;;;46.35;18.70;;;-0.10;99.90;;;;;;5102980;28;20196;-80
2022/03/03 06:51:40;;;;;;;38.90;19.08;;;-0.10;99.90;;;;;;5102575;28;20262;-80
2022/03/03 06:54:09;;;;;;;58.75;21.00;;;0.00;99.90;;;;;;5104115;28;20224;-81
2022/03/03 06:56:48;;;;;;;29.98;20.42;;;0.00;99.90;;;;;;5100890;28;20204;-78
2022/03/03 06:59:16;;;;;;;30.75;16.58;;;0.10;99.90;;;;;;5094577;28;20208;-78
2022/03/03 07:01:46;;;;;;;24.60;18.70;;;0.10;99.90;;;;;;5096444;28;20232;-79
2022/03/03 07:04:14;;;;;;;31.38;17.88;;;0.20;99.90;;;;;;5104269;28;20240;-79
2022/03/03 07:06:41;;;;;;;20.52;16.77;;;0.30;99.90;;;;;;5098577;28;20625;-78
2022/03/03 07:09:08;;;;;;;18.70;14.95;;;0.40;99.90;;;;;;5076678;28;20212;-81
2022/03/03 07:11:37;;;;;;;21.48;15.13;;;0.50;99.90;;;;;;5091400;28;20258;-79
2022/03/03 07:14:04;;;;;;;19.15;16.45;;;0.60;99.90;;;;;;5078973;28;20229;-79
2022/03/03 07:16:38;;;;;;;18.35;15.48;;;0.60;99.90;;;;;;5089290;28;20202;-79
2022/03/03 07:19:08;;;;;;;27.15;20.20;;;0.70;99.90;;;;;;5099377;28;20831;-79
2022/03/03 07:21:48;;;;;;;22.70;17.83;;;0.80;99.90;;;;;;5099164;28;20225;-79
2022/03/03 07:24:23;;;;;;;19.95;17.75;;;1.00;99.90;;;;;;5100307;28;20209;-79
2022/03/03 07:26:55;;;;;;;25.05;17.08;;;1.10;99.90;;;;;;5100655;28;20221;-79
2022/03/03 07:29:26;;;;;;;25.48;17.30;;;1.30;99.90;;;;;;5099445;28;20213;-79
2022/03/03 07:31:57;;;;;;;24.98;17.17;;;1.30;99.90;;;;;;5100355;28;20229;-79
2022/03/03 07:34:28;;;;;;;28.58;20.15;;;1.50;99.90;;;;;;5100076;28;20280;-78
2022/03/03 07:36:58;;;;;;;24.25;17.52;;;1.60;99.90;;;;;;5085615;28;20212;-79
2022/03/03 07:39:30;;;;;;;24.00;16.52;;;1.60;99.90;;;;;;5099411;28;20232;-79
2022/03/03 07:41:59;;;;;;;26.52;15.85;;;1.70;99.90;;;;;;5078439;28;20754;-79
2022/03/03 07:44:26;;;;;;;23.50;18.35;;;1.80;99.90;;;;;;5078369;28;20229;-78
2022/03/03 07:46:53;;;;;;;19.67;15.25;;;1.90;99.90;;;;;;5098231;28;20200;-78
2022/03/03 07:49:21;;;;;;;22.05;17.08;;;2.10;99.90;;;;;;5098878;28;20206;-78
2022/03/03 07:51:50;;;;;;;23.95;17.73;;;2.30;99.90;;;;;;5098498;28;20223;-79
2022/03/03 07:54:17;;;;;;;23.70;17.77;;;2.40;99.90;;;;;;5098818;28;20219;-79
2022/03/03 07:56:49;;;;;;;24.30;18.05;;;2.60;99.90;;;;;;5095465;28;20449;-79
2022/03/03 07:59:18;;;;;;;23.40;17.95;;;2.70;99.90;;;;;;5090827;28;20704;-79
2022/03/03 08:01:46;;;;;;;27.10;17.52;;;2.70;99.90;;;;;;5096273;28;20250;-79
2022/03/03 08:04:15;;;;;;;24.30;16.33;;;2.80;99.80;;;;;;5093308;28;20203;-80
2022/03/03 08:06:44;;;;;;;22.20;15.95;;;2.90;99.50;;;;;;5087061;28;20658;-80
2022/03/03 08:09:13;;;;;;;20.92;16.33;;;3.00;99.30;;;;;;5092857;28;20203;-80
2022/03/03 08:11:41;;;;;;;20.63;18.30;;;3.00;99.20;;;;;;5089974;28;20227;-79
2022/03/03 08:14:09;;;;;;;22.33;17.45;;;3.10;98.80;;;;;;5089843;28;20225;-78
2022/03/03 08:16:38;;;;;;;18.92;16.92;;;3.20;98.50;;;;;;5086259;28;20200;-78
2022/03/03 08:19:07;;;;;;;26.30;16.85;;;3.20;98.30;;;;;;5090041;28;20203;-79
2022/03/03 08:21:35;;;;;;;22.30;17.02;;;3.20;98.40;;;;;;5088612;28;20245;-79
2022/03/03 08:24:03;;;;;;;25.98;17.20;;;3.30;98.30;;;;;;5090098;28;20218;-80
2022/03/03 08:26:31;;;;;;;19.77;16.75;;;3.40;98.10;;;;;;5096697;28;20269;-80
2022/03/03 08:28:58;;;;;;;22.38;19.05;;;3.40;98.40;;;;;;5101203;28;20207;-80
2022/03/03 08:31:29;;;;;;;21.38;18.00;;;3.50;98.20;;;;;;5099771;28;20629;-80
2022/03/03 08:34:03;;;;;;;28.67;17.88;;;3.60;98.10;;;;;;5098768;28;20265;-80
2022/03/03 08:36:34;;;;;;;23.13;16.15;;;3.80;97.60;;;;;;5099447;28;20253;-81
2022/03/03 08:39:05;;;;;;;22.48;17.95;;;3.90;97.30;;;;;;5099698;28;20618;-81
2022/03/03 08:41:36;;;;;;;20.73;17.10;;;4.00;97.30;;;;;;5100059;28;20216;-81
2022/03/03 08:44:05;;;;;;;21.92;18.35;;;3.80;97.10;;;;;;5099440;28;20204;-80
2022/03/03 08:46:33;;;;;;;20.20;18.05;;;4.00;97.50;;;;;;5093747;28;20206;-81
2022/03/03 08:49:09;;;;;;;22.48;18.08;;;4.10;97.20;;;;;;5096811;28;20199;-81
2022/03/03 08:51:38;;;;;;;27.90;19.30;;;4.30;96.80;;;;;;5095516;28;20228;-81
2022/03/03 08:54:05;;;;;;;21.58;18.10;;;4.40;96.50;;;;;;5094974;28;20686;-81
2022/03/03 08:56:32;;;;;;;22.98;19.20;;;4.50;96.40;;;;;;5094354;28;20738;-81
2022/03/03 08:58:59;;;;;;;25.85;16.40;;;4.70;96.40;;;;;;5098168;28;20201;-81
2022/03/03 09:01:26;;;;;;;23.48;16.40;;;4.70;95.40;;;;;;5098838;28;20228;-81
2022/03/03 09:03:53;;;;;;;28.55;18.42;;;4.80;95.50;;;;;;5097350;28;20204;-81
2022/03/03 09:06:21;;;;;;;18.85;15.27;;;5.00;95.40;;;;;;5098111;28;20208;-81
2022/03/03 09:08:48;;;;;;;25.95;19.60;;;5.20;95.10;;;;;;5098672;28;20204;-82
2022/03/03 09:11:18;;;;;;;24.27;19.33;;;5.30;94.70;;;;;;5097684;28;20204;-82
2022/03/03 09:13:45;;;;;;;21.20;18.55;;;5.50;94.90;;;;;;5097006;28;20208;-82
2022/03/03 09:16:13;;;;;;;26.60;18.95;;;5.70;95.50;;;;;;5098143;28;20701;-82
2022/03/03 09:18:40;;;;;;;23.65;18.45;;;5.80;95.50;;;;;;5100094;28;20200;-81
2022/03/03 09:21:06;;;;;;;25.13;22.50;;;5.90;95.00;;;;;;5098870;28;20196;-81
2022/03/03 09:23:34;;;;;;;25.20;20.65;;;6.00;94.90;;;;;;5101279;28;20569;-81
2022/03/03 09:26:01;;;;;;;24.52;18.83;;;6.00;94.50;;;;;;5099730;28;20189;-81
2022/03/03 09:28:28;;;;;;;23.13;19.98;;;6.20;94.70;;;;;;5078200;28;20200;-81
2022/03/03 09:30:56;;;;;;;26.00;20.40;;;6.20;94.90;;;;;;5083212;28;20709;-81
2022/03/03 09:33:23;;;;;;;32.25;20.50;;;6.30;94.80;;;;;;5097961;28;20224;-81
2022/03/03 09:35:50;;;;;;;21.50;18.58;;;6.30;94.40;;;;;;5087330;28;20321;-81
2022/03/03 09:38:17;;;;;;;21.25;17.40;;;6.30;94.50;;;;;;5099163;28;20291;-81
2022/03/03 09:40:48;;;;;;;23.15;18.98;;;6.30;94.60;;;;;;5099413;28;20204;-81
2022/03/03 09:43:15;;;;;;;21.58;18.92;;;6.40;94.10;;;;;;5099502;28;20224;-83
2022/03/03 09:45:42;;;;;;;22.08;19.63;;;6.50;94.70;;;;;;5099401;28;20211;-82
2022/03/03 09:48:10;;;;;;;21.77;18.83;;;6.60;94.40;;;;;;5098969;28;20583;-82
2022/03/03 09:50:38;;;;;;;22.63;20.25;;;6.70;94.70;;;;;;5093819;28;20196;-81
2022/03/03 09:53:07;;;;;;;22.65;19.45;;;6.80;94.20;;;;;;5095159;28;20228;-82
2022/03/03 09:55:34;;;;;;;27.27;21.23;;;6.90;94.40;;;;;;5094922;28;20240;-82
2022/03/03 09:58:02;;;;;;;25.75;21.40;;;7.10;94.00;;;;;;5095680;28;20288;-81
2022/03/03 10:00:33;;;;;;;25.08;20.05;;;7.20;94.10;;;;;;5096738;28;20200;-81
2022/03/03 10:03:08;;;;;;;22.63;19.77;;;7.30;93.60;;;;;;5096383;28;20224;-81
2022/03/03 10:05:39;;;;;;;30.73;21.42;;;7.40;93.40;;;;;;5093618;28;20200;-80
2022/03/03 10:08:08;;;;;;;22.58;20.15;;;7.50;93.20;;;;;;5111793;28;20247;-80
2022/03/03 10:10:37;;;;;;;29.60;19.92;;;7.60;92.80;;;;;;5113538;28;20215;-80
2022/03/03 10:13:06;;;;;;;26.15;22.00;;;7.80;92.40;;;;;;5104196;28;20228;-81
2022/03/03 10:15:35;;;;;;;25.38;21.95;;;7.90;91.90;;;;;;5098453;28;20221;-81
2022/03/03 10:18:05;;;;;;;23.75;20.20;;;8.00;91.30;;;;;;5099631;28;20215;-80
2022/03/03 10:20:37;;;;;;;24.10;21.08;;;8.10;91.40;;;;;;5113139;28;20194;-80
2022/03/03 10:23:08;;;;;;;22.52;20.17;;;8.20;91.20;;;;;;5102437;28;20239;-80
2022/03/03 10:25:38;;;;;;;24.35;21.75;;;8.30;90.90;;;;;;5112587;28;20177;-80
2022/03/03 10:28:11;;;;;;;20.15;17.98;;;8.30;89.80;;;;;;5100113;28;20200;-80
2022/03/03 10:30:59;;;;;;;23.75;19.10;;;8.10;88.80;;;;;;5087958;28;20205;-81
2022/03/03 10:33:28;;;;;;;21.98;19.65;;;8.00;86.90;;;;;;5100563;28;20214;-81
2022/03/03 10:36:10;;;;;;;22.85;20.10;;;8.20;88.30;;;;;;5116179;28;20245;-81
2022/03/03 10:38:52;;;;;;;24.35;19.30;;;8.40;89.30;;;;;;5100505;28;20208;-80
2022/03/03 10:41:34;;;;;;;23.95;21.40;;;8.50;85.80;;;;;;5108093;28;20212;-80
2022/03/03 10:44:05;;;;;;;23.85;20.27;;;8.30;84.60;;;;;;5099834;28;20230;-81
2022/03/03 10:46:33;;;;;;;22.50;18.83;;;8.10;84.90;;;;;;5100380;28;20240;-80
2022/03/03 10:48:59;;;;;;;25.30;20.13;;;8.00;85.30;;;;;;5100027;28;20209;-80
2022/03/03 10:51:26;;;;;;;25.80;19.58;;;8.20;85.90;;;;;;5098592;28;20237;-81
2022/03/03 10:53:58;;;;;;;22.33;18.03;;;8.40;84.80;;;;;;5099136;28;20208;-81
2022/03/03 10:56:24;;;;;;;26.20;21.67;;;8.60;83.30;;;;;;5097612;28;20856;-81
2022/03/03 10:58:54;;;;;;;22.77;18.77;;;8.80;84.50;;;;;;5090403;28;20447;-81
2022/03/03 11:01:24;;;;;;;24.40;19.27;;;8.90;80.70;;;;;;5098776;28;20480;-81
2022/03/03 11:03:52;;;;;;;25.63;21.30;;;8.80;78.80;;;;;;5096636;28;20455;-81
2022/03/03 11:06:20;;;;;;;19.83;17.47;;;9.00;79.00;;;;;;5086156;28;20676;-81
2022/03/03 11:08:48;;;;;;;25.33;18.80;;;9.10;77.90;;;;;;5094189;28;20458;-81
2022/03/03 11:11:15;;;;;;;23.47;19.13;;;9.50;76.70;;;;;;5096376;28;20449;-80
2022/03/03 11:13:44;;;;;;;21.03;18.73;;;10.20;76.00;;;;;;5096178;28;20456;-80
2022/03/03 11:16:11;;;;;;;27.20;19.43;;;11.00;74.40;;;;;;5096980;28;20481;-80
2022/03/03 11:18:40;;;;;;;22.00;19.67;;;11.80;68.50;;;;;;5096753;28;20428;-81
2022/03/03 11:21:07;;;;;;;20.07;17.93;;;12.30;65.80;;;;;;5096672;28;20533;-81
2022/03/03 11:23:39;;;;;;;22.80;19.20;;;12.80;65.10;;;;;;5096500;28;20470;-81
2022/03/03 11:26:08;;;;;;;20.70;17.60;;;13.50;63.50;;;;;;5095735;28;20449;-80
2022/03/03 11:28:36;;;;;;;23.93;18.63;;;14.10;59.30;;;;;;5096621;28;20458;-80
2022/03/03 11:31:26;;;;;;;22.80;20.37;;;14.10;56.60;;;;;;5099285;28;20967;-81
2022/03/03 11:34:23;;;;;;;24.70;19.97;;;14.20;55.80;;;;;;5096461;28;20995;-80
2022/03/03 11:36:51;;;;;;;20.63;18.13;;;13.60;53.80;;;;;;5096080;28;20499;-81
2022/03/03 11:39:42;;;;;;;22.37;20.07;;;13.90;55.70;;;;;;5105725;28;20457;-81
2022/03/03 11:42:31;;;;;;;21.30;19.13;;;14.50;55.80;;;;;;5087009;28;20941;-81
2022/03/03 11:45:00;;;;;;;23.27;18.27;;;15.40;54.30;;;;;;5077074;28;20455;-80
2022/03/03 11:47:29;;;;;;;23.93;20.43;;;16.30;52.60;;;;;;5094502;28;20436;-80
2022/03/03 11:50:07;;;;;;;22.97;20.77;;;16.80;50.40;;;;;;5082920;28;20444;-80
2022/03/03 11:52:34;;;;;;;21.30;19.13;;;16.80;48.70;;;;;;5096550;28;20472;-80
2022/03/03 11:55:31;;;;;;;23.67;21.43;;;16.50;47.40;;;;;;5098959;28;20517;-83
2022/03/03 11:58:08;;;;;;;22.60;19.80;;;16.40;47.90;;;;;;5107095;28;20440;-84
2022/03/03 12:00:39;;;;;;;22.80;20.60;;;16.30;46.80;;;;;;5102198;28;20448;-82
2022/03/03 12:03:07;;;;;;;21.33;19.10;;;15.70;47.00;;;;;;5097606;28;20463;-81
2022/03/03 12:05:39;;;;;;;21.40;19.00;;;14.70;47.40;;;;;;5098392;28;20808;-81
2022/03/03 12:08:28;;;;;;;24.13;20.87;;;15.10;49.50;;;;;;5097538;28;20453;-82
2022/03/03 12:11:00;;;;;;;24.80;19.97;;;15.90;49.40;;;;;;5094609;28;20538;-81
2022/03/03 12:13:29;;;;;;;22.47;20.23;;;16.30;46.40;;;;;;5097177;28;20963;-81
2022/03/03 12:16:27;;;;;;;22.33;20.03;;;16.80;46.90;;;;;;5085843;28;20481;-80
2022/03/03 12:19:08;;;;;;;21.97;19.63;;;16.40;44.50;;;;;;5093286;28;20486;-80
2022/03/03 12:21:38;;;;;;;22.33;19.40;;;16.60;45.00;;;;;;5096458;28;20462;-81
2022/03/03 12:24:34;;;;;;;24.23;20.03;;;16.20;44.60;;;;;;5097880;28;20558;-81
2022/03/03 12:27:24;;;;;;;20.43;18.20;;;17.10;45.70;;;;;;5098339;28;20540;-81
2022/03/03 12:29:57;;;;;;;21.83;18.83;;;18.10;44.30;;;;;;5081607;28;21068;-82
2022/03/03 12:32:39;;;;;;;23.60;19.00;;;18.30;42.60;;;;;;5092050;28;20482;-81
2022/03/03 12:35:12;;;;;;;22.20;19.87;;;18.40;41.00;;;;;;5095766;28;20438;-81
2022/03/03 12:37:45;;;;;;;20.63;17.77;;;18.10;40.90;;;;;;5094412;28;20571;-81
2022/03/03 12:40:14;;;;;;;20.93;18.03;;;18.30;39.70;;;;;;5092392;28;20793;-82
2022/03/03 12:42:45;;;;;;;22.07;19.40;;;18.50;40.70;;;;;;5082844;28;20479;-81